sensor_id;sensor_type;location;lat;lon;timestamp;P1;durP1;ratioP1;P2;durP2;ratioP2
4278;SDS011;2153;47.744;10.580;2022-08-19T00:00:38;18.03;;;6.23;;
4278;SDS011;2153;47.744;10.580;2022-08-19T00:03:05;17.63;;;6.27;;
4278;SDS011;2153;47.744;10.580;2022-08-19T00:05:32;16.57;;;5.60;;
4278;SDS011;2153;47.744;10.580;2022-08-19T00:07:59;17.10;;;6.10;;
4278;SDS011;2153;47.744;10.580;2022-08-19T00:10:26;22.27;;;6.50;;
4278;SDS011;2153;47.744;10.580;2022-08-19T00:12:53;16.73;;;5.70;;
4278;SDS011;2153;47.744;10.580;2022-08-19T00:15:21;18.97;;;6.57;;
4278;SDS011;2153;47.744;10.580;2022-08-19T00:17:48;16.30;;;5.30;;
4278;SDS011;2153;47.744;10.580;2022-08-19T00:20:18;16.20;;;5.57;;
4278;SDS011;2153;47.744;10.580;2022-08-19T00:22:46;20.00;;;5.70;;
4278;SDS011;2153;47.744;10.580;2022-08-19T00:25:14;16.00;;;5.40;;
4278;SDS011;2153;47.744;10.580;2022-08-19T00:27:41;16.17;;;5.90;;
4278;SDS011;2153;47.744;10.580;2022-08-19T00:30:08;16.00;;;5.63;;
4278;SDS011;2153;47.744;10.580;2022-08-19T00:32:37;32.17;;;6.57;;
4278;SDS011;2153;47.744;10.580;2022-08-19T00:35:05;17.88;;;6.07;;
4278;SDS011;2153;47.744;10.580;2022-08-19T00:37:32;16.27;;;5.90;;
4278;SDS011;2153;47.744;10.580;2022-08-19T00:40:00;16.87;;;5.80;;
4278;SDS011;2153;47.744;10.580;2022-08-19T00:42:28;16.43;;;5.60;;
4278;SDS011;2153;47.744;10.580;2022-08-19T00:44:55;18.57;;;5.70;;
4278;SDS011;2153;47.744;10.580;2022-08-19T00:47:22;16.87;;;6.10;;
4278;SDS011;2153;47.744;10.580;2022-08-19T00:49:51;16.43;;;5.83;;
4278;SDS011;2153;47.744;10.580;2022-08-19T00:52:26;18.40;;;5.57;;
4278;SDS011;2153;47.744;10.580;2022-08-19T00:54:55;15.13;;;5.10;;
4278;SDS011;2153;47.744;10.580;2022-08-19T00:57:25;15.97;;;4.83;;
4278;SDS011;2153;47.744;10.580;2022-08-19T00:59:55;15.60;;;4.63;;
4278;SDS011;2153;47.744;10.580;2022-08-19T01:02:23;14.70;;;4.70;;
4278;SDS011;2153;47.744;10.580;2022-08-19T01:04:52;14.70;;;4.67;;
4278;SDS011;2153;47.744;10.580;2022-08-19T01:07:19;18.50;;;4.60;;
4278;SDS011;2153;47.744;10.580;2022-08-19T01:09:46;17.40;;;4.50;;
4278;SDS011;2153;47.744;10.580;2022-08-19T01:12:12;19.13;;;4.80;;
4278;SDS011;2153;47.744;10.580;2022-08-19T01:14:39;14.67;;;4.30;;
4278;SDS011;2153;47.744;10.580;2022-08-19T01:17:07;15.13;;;3.87;;
4278;SDS011;2153;47.744;10.580;2022-08-19T01:19:35;15.30;;;4.30;;
4278;SDS011;2153;47.744;10.580;2022-08-19T01:22:08;17.30;;;4.83;;
4278;SDS011;2153;47.744;10.580;2022-08-19T01:24:40;16.47;;;4.03;;
4278;SDS011;2153;47.744;10.580;2022-08-19T01:27:07;14.50;;;4.20;;
4278;SDS011;2153;47.744;10.580;2022-08-19T01:29:36;18.03;;;5.33;;
4278;SDS011;2153;47.744;10.580;2022-08-19T01:32:04;15.83;;;4.60;;
4278;SDS011;2153;47.744;10.580;2022-08-19T01:34:32;16.40;;;4.60;;
4278;SDS011;2153;47.744;10.580;2022-08-19T01:37:00;19.30;;;5.40;;
4278;SDS011;2153;47.744;10.580;2022-08-19T01:39:35;20.17;;;6.00;;
4278;SDS011;2153;47.744;10.580;2022-08-19T01:42:04;16.33;;;5.33;;
4278;SDS011;2153;47.744;10.580;2022-08-19T01:44:35;17.33;;;5.57;;
4278;SDS011;2153;47.744;10.580;2022-08-19T01:47:02;18.17;;;5.70;;
4278;SDS011;2153;47.744;10.580;2022-08-19T01:49:30;16.20;;;5.50;;
4278;SDS011;2153;47.744;10.580;2022-08-19T01:51:56;16.30;;;5.60;;
4278;SDS011;2153;47.744;10.580;2022-08-19T01:54:25;16.50;;;6.00;;
4278;SDS011;2153;47.744;10.580;2022-08-19T01:56:53;17.80;;;5.37;;
4278;SDS011;2153;47.744;10.580;2022-08-19T01:59:25;17.77;;;6.50;;
4278;SDS011;2153;47.744;10.580;2022-08-19T02:01:52;18.77;;;6.67;;
4278;SDS011;2153;47.744;10.580;2022-08-19T02:04:19;18.03;;;6.40;;
4278;SDS011;2153;47.744;10.580;2022-08-19T02:06:45;17.03;;;5.83;;
4278;SDS011;2153;47.744;10.580;2022-08-19T02:09:13;20.17;;;5.60;;
4278;SDS011;2153;47.744;10.580;2022-08-19T02:11:41;17.83;;;4.97;;
4278;SDS011;2153;47.744;10.580;2022-08-19T02:14:08;16.93;;;5.63;;
4278;SDS011;2153;47.744;10.580;2022-08-19T02:16:36;15.83;;;4.97;;
4278;SDS011;2153;47.744;10.580;2022-08-19T02:19:05;18.10;;;5.40;;
4278;SDS011;2153;47.744;10.580;2022-08-19T02:21:32;17.13;;;4.90;;
4278;SDS011;2153;47.744;10.580;2022-08-19T02:24:00;18.47;;;5.83;;
4278;SDS011;2153;47.744;10.580;2022-08-19T02:26:27;17.53;;;6.33;;
4278;SDS011;2153;47.744;10.580;2022-08-19T02:28:54;18.03;;;6.67;;
4278;SDS011;2153;47.744;10.580;2022-08-19T02:31:22;19.53;;;5.57;;
4278;SDS011;2153;47.744;10.580;2022-08-19T02:33:51;17.40;;;5.70;;
4278;SDS011;2153;47.744;10.580;2022-08-19T02:36:18;18.90;;;6.10;;
4278;SDS011;2153;47.744;10.580;2022-08-19T02:38:45;21.53;;;6.10;;
4278;SDS011;2153;47.744;10.580;2022-08-19T02:41:12;29.03;;;6.10;;
4278;SDS011;2153;47.744;10.580;2022-08-19T02:43:42;18.90;;;6.97;;
4278;SDS011;2153;47.744;10.580;2022-08-19T02:46:13;16.23;;;5.20;;
4278;SDS011;2153;47.744;10.580;2022-08-19T02:48:45;18.23;;;6.60;;
4278;SDS011;2153;47.744;10.580;2022-08-19T02:51:16;19.20;;;5.87;;
4278;SDS011;2153;47.744;10.580;2022-08-19T02:53:44;17.77;;;6.53;;
4278;SDS011;2153;47.744;10.580;2022-08-19T02:56:11;18.27;;;6.03;;
4278;SDS011;2153;47.744;10.580;2022-08-19T02:58:38;19.13;;;7.40;;
4278;SDS011;2153;47.744;10.580;2022-08-19T03:01:05;18.07;;;7.07;;
4278;SDS011;2153;47.744;10.580;2022-08-19T03:03:31;17.77;;;6.33;;
4278;SDS011;2153;47.744;10.580;2022-08-19T03:06:05;19.10;;;6.33;;
4278;SDS011;2153;47.744;10.580;2022-08-19T03:08:35;20.70;;;7.37;;
4278;SDS011;2153;47.744;10.580;2022-08-19T03:11:03;16.70;;;6.10;;
4278;SDS011;2153;47.744;10.580;2022-08-19T03:13:30;18.90;;;7.30;;
4278;SDS011;2153;47.744;10.580;2022-08-19T03:15:57;18.40;;;6.13;;
4278;SDS011;2153;47.744;10.580;2022-08-19T03:18:24;17.73;;;6.50;;
4278;SDS011;2153;47.744;10.580;2022-08-19T03:20:51;18.13;;;6.73;;
4278;SDS011;2153;47.744;10.580;2022-08-19T03:23:19;17.20;;;6.10;;
4278;SDS011;2153;47.744;10.580;2022-08-19T03:25:48;19.40;;;6.50;;
4278;SDS011;2153;47.744;10.580;2022-08-19T03:28:17;18.23;;;6.80;;
4278;SDS011;2153;47.744;10.580;2022-08-19T03:30:54;18.27;;;6.90;;
4278;SDS011;2153;47.744;10.580;2022-08-19T03:33:22;17.67;;;6.47;;
4278;SDS011;2153;47.744;10.580;2022-08-19T03:35:59;25.93;;;6.33;;
4278;SDS011;2153;47.744;10.580;2022-08-19T03:38:26;17.50;;;6.17;;
4278;SDS011;2153;47.744;10.580;2022-08-19T03:40:55;19.90;;;7.00;;
4278;SDS011;2153;47.744;10.580;2022-08-19T03:43:21;18.63;;;6.90;;
4278;SDS011;2153;47.744;10.580;2022-08-19T03:45:48;18.93;;;6.37;;
4278;SDS011;2153;47.744;10.580;2022-08-19T03:48:16;19.03;;;6.57;;
4278;SDS011;2153;47.744;10.580;2022-08-19T03:50:42;18.43;;;5.77;;
4278;SDS011;2153;47.744;10.580;2022-08-19T03:53:10;15.77;;;5.30;;
4278;SDS011;2153;47.744;10.580;2022-08-19T03:55:38;21.63;;;6.03;;
4278;SDS011;2153;47.744;10.580;2022-08-19T03:58:07;17.00;;;6.17;;
4278;SDS011;2153;47.744;10.580;2022-08-19T04:00:36;16.70;;;6.23;;
4278;SDS011;2153;47.744;10.580;2022-08-19T04:03:02;17.10;;;6.27;;
4278;SDS011;2153;47.744;10.580;2022-08-19T04:05:29;18.40;;;7.10;;
4278;SDS011;2153;47.744;10.580;2022-08-19T04:07:56;19.07;;;6.90;;
4278;SDS011;2153;47.744;10.580;2022-08-19T04:10:23;19.03;;;7.67;;
4278;SDS011;2153;47.744;10.580;2022-08-19T04:12:50;19.90;;;7.50;;
4278;SDS011;2153;47.744;10.580;2022-08-19T04:15:19;19.27;;;7.37;;
4278;SDS011;2153;47.744;10.580;2022-08-19T04:17:46;20.07;;;7.53;;
4278;SDS011;2153;47.744;10.580;2022-08-19T04:20:13;17.77;;;7.30;;
4278;SDS011;2153;47.744;10.580;2022-08-19T04:22:39;17.83;;;6.90;;
4278;SDS011;2153;47.744;10.580;2022-08-19T04:25:06;21.33;;;7.30;;
4278;SDS011;2153;47.744;10.580;2022-08-19T04:27:34;18.80;;;6.50;;
4278;SDS011;2153;47.744;10.580;2022-08-19T04:30:00;18.10;;;7.30;;
4278;SDS011;2153;47.744;10.580;2022-08-19T04:32:28;17.47;;;6.80;;
4278;SDS011;2153;47.744;10.580;2022-08-19T04:34:56;18.33;;;6.90;;
4278;SDS011;2153;47.744;10.580;2022-08-19T04:37:24;21.50;;;7.07;;
4278;SDS011;2153;47.744;10.580;2022-08-19T04:39:51;17.87;;;7.17;;
4278;SDS011;2153;47.744;10.580;2022-08-19T04:42:36;19.47;;;7.07;;
4278;SDS011;2153;47.744;10.580;2022-08-19T04:45:05;18.97;;;6.97;;
4278;SDS011;2153;47.744;10.580;2022-08-19T04:47:37;19.73;;;7.73;;
4278;SDS011;2153;47.744;10.580;2022-08-19T04:50:04;19.23;;;7.60;;
4278;SDS011;2153;47.744;10.580;2022-08-19T04:52:32;22.50;;;7.63;;
4278;SDS011;2153;47.744;10.580;2022-08-19T04:54:59;22.13;;;8.07;;
4278;SDS011;2153;47.744;10.580;2022-08-19T04:57:26;19.37;;;7.70;;
4278;SDS011;2153;47.744;10.580;2022-08-19T04:59:53;19.80;;;7.93;;
4278;SDS011;2153;47.744;10.580;2022-08-19T05:02:21;19.90;;;8.20;;
4278;SDS011;2153;47.744;10.580;2022-08-19T05:04:51;20.70;;;8.40;;
4278;SDS011;2153;47.744;10.580;2022-08-19T05:07:22;21.33;;;8.27;;
4278;SDS011;2153;47.744;10.580;2022-08-19T05:09:49;19.10;;;8.03;;
4278;SDS011;2153;47.744;10.580;2022-08-19T05:12:16;21.63;;;7.80;;
4278;SDS011;2153;47.744;10.580;2022-08-19T05:14:43;18.93;;;8.40;;
4278;SDS011;2153;47.744;10.580;2022-08-19T05:17:12;23.03;;;7.63;;
4278;SDS011;2153;47.744;10.580;2022-08-19T05:19:39;19.93;;;7.80;;
4278;SDS011;2153;47.744;10.580;2022-08-19T05:22:25;18.30;;;7.43;;
4278;SDS011;2153;47.744;10.580;2022-08-19T05:25:01;19.77;;;8.10;;
4278;SDS011;2153;47.744;10.580;2022-08-19T05:27:30;22.63;;;7.33;;
4278;SDS011;2153;47.744;10.580;2022-08-19T05:29:57;20.47;;;7.20;;
4278;SDS011;2153;47.744;10.580;2022-08-19T05:32:24;18.30;;;6.73;;
4278;SDS011;2153;47.744;10.580;2022-08-19T05:34:50;20.53;;;7.40;;
4278;SDS011;2153;47.744;10.580;2022-08-19T05:37:17;20.87;;;7.07;;
4278;SDS011;2153;47.744;10.580;2022-08-19T05:39:45;19.30;;;7.90;;
4278;SDS011;2153;47.744;10.580;2022-08-19T05:42:13;25.90;;;8.60;;
4278;SDS011;2153;47.744;10.580;2022-08-19T05:44:42;26.20;;;9.87;;
4278;SDS011;2153;47.744;10.580;2022-08-19T05:47:10;17.40;;;6.90;;
4278;SDS011;2153;47.744;10.580;2022-08-19T05:49:40;19.80;;;7.67;;
4278;SDS011;2153;47.744;10.580;2022-08-19T05:52:08;22.40;;;7.60;;
4278;SDS011;2153;47.744;10.580;2022-08-19T05:54:37;19.53;;;8.77;;
4278;SDS011;2153;47.744;10.580;2022-08-19T05:57:07;21.80;;;9.00;;
4278;SDS011;2153;47.744;10.580;2022-08-19T05:59:34;22.03;;;8.40;;
4278;SDS011;2153;47.744;10.580;2022-08-19T06:02:01;20.47;;;9.03;;
4278;SDS011;2153;47.744;10.580;2022-08-19T06:04:29;21.13;;;9.30;;
4278;SDS011;2153;47.744;10.580;2022-08-19T06:06:56;25.53;;;9.90;;
4278;SDS011;2153;47.744;10.580;2022-08-19T06:09:23;22.70;;;9.17;;
4278;SDS011;2153;47.744;10.580;2022-08-19T06:11:50;21.23;;;8.80;;
4278;SDS011;2153;47.744;10.580;2022-08-19T06:14:21;21.60;;;8.70;;
4278;SDS011;2153;47.744;10.580;2022-08-19T06:16:50;22.00;;;9.73;;
4278;SDS011;2153;47.744;10.580;2022-08-19T06:19:17;27.20;;;10.60;;
4278;SDS011;2153;47.744;10.580;2022-08-19T06:21:47;24.57;;;10.80;;
4278;SDS011;2153;47.744;10.580;2022-08-19T06:24:16;24.57;;;11.23;;
4278;SDS011;2153;47.744;10.580;2022-08-19T06:26:45;23.63;;;10.47;;
4278;SDS011;2153;47.744;10.580;2022-08-19T06:29:14;23.40;;;11.70;;
4278;SDS011;2153;47.744;10.580;2022-08-19T06:31:44;23.60;;;9.80;;
4278;SDS011;2153;47.744;10.580;2022-08-19T06:34:15;22.10;;;10.23;;
4278;SDS011;2153;47.744;10.580;2022-08-19T06:36:43;23.27;;;10.83;;
4278;SDS011;2153;47.744;10.580;2022-08-19T06:39:12;20.10;;;9.53;;
4278;SDS011;2153;47.744;10.580;2022-08-19T06:41:41;20.10;;;9.23;;
4278;SDS011;2153;47.744;10.580;2022-08-19T06:44:10;20.13;;;7.97;;
4278;SDS011;2153;47.744;10.580;2022-08-19T06:46:37;23.03;;;5.10;;
4278;SDS011;2153;47.744;10.580;2022-08-19T06:49:06;18.10;;;5.70;;
4278;SDS011;2153;47.744;10.580;2022-08-19T06:51:39;18.53;;;5.03;;
4278;SDS011;2153;47.744;10.580;2022-08-19T06:54:06;13.87;;;3.67;;
4278;SDS011;2153;47.744;10.580;2022-08-19T06:56:34;13.97;;;3.80;;
4278;SDS011;2153;47.744;10.580;2022-08-19T06:59:01;14.20;;;3.50;;
4278;SDS011;2153;47.744;10.580;2022-08-19T07:01:31;13.37;;;3.13;;
4278;SDS011;2153;47.744;10.580;2022-08-19T07:04:02;13.40;;;2.80;;
4278;SDS011;2153;47.744;10.580;2022-08-19T07:06:31;12.90;;;2.73;;
4278;SDS011;2153;47.744;10.580;2022-08-19T07:08:57;14.30;;;3.57;;
4278;SDS011;2153;47.744;10.580;2022-08-19T07:11:24;13.80;;;3.40;;
4278;SDS011;2153;47.744;10.580;2022-08-19T07:13:51;13.73;;;3.43;;
4278;SDS011;2153;47.744;10.580;2022-08-19T07:16:18;15.07;;;3.77;;
4278;SDS011;2153;47.744;10.580;2022-08-19T07:18:46;15.80;;;3.50;;
4278;SDS011;2153;47.744;10.580;2022-08-19T07:21:14;14.00;;;3.50;;
4278;SDS011;2153;47.744;10.580;2022-08-19T07:23:44;14.20;;;3.17;;
4278;SDS011;2153;47.744;10.580;2022-08-19T07:26:13;14.93;;;3.10;;
4278;SDS011;2153;47.744;10.580;2022-08-19T07:28:42;13.83;;;3.47;;
4278;SDS011;2153;47.744;10.580;2022-08-19T07:31:09;13.17;;;2.90;;
4278;SDS011;2153;47.744;10.580;2022-08-19T07:33:37;17.40;;;3.20;;
4278;SDS011;2153;47.744;10.580;2022-08-19T07:36:04;14.00;;;3.30;;
4278;SDS011;2153;47.744;10.580;2022-08-19T07:38:32;13.00;;;3.07;;
4278;SDS011;2153;47.744;10.580;2022-08-19T07:41:01;14.03;;;3.23;;
4278;SDS011;2153;47.744;10.580;2022-08-19T07:43:28;14.77;;;3.30;;
4278;SDS011;2153;47.744;10.580;2022-08-19T07:45:55;13.70;;;3.70;;
4278;SDS011;2153;47.744;10.580;2022-08-19T07:48:22;14.33;;;4.17;;
4278;SDS011;2153;47.744;10.580;2022-08-19T07:50:50;14.90;;;3.80;;
4278;SDS011;2153;47.744;10.580;2022-08-19T07:53:17;18.70;;;4.10;;
4278;SDS011;2153;47.744;10.580;2022-08-19T07:55:44;15.50;;;3.90;;
4278;SDS011;2153;47.744;10.580;2022-08-19T07:58:13;16.30;;;4.67;;
4278;SDS011;2153;47.744;10.580;2022-08-19T08:00:42;15.83;;;4.07;;
4278;SDS011;2153;47.744;10.580;2022-08-19T08:03:11;14.00;;;4.20;;
4278;SDS011;2153;47.744;10.580;2022-08-19T08:05:39;16.33;;;3.80;;
4278;SDS011;2153;47.744;10.580;2022-08-19T08:08:23;15.00;;;4.80;;
4278;SDS011;2153;47.744;10.580;2022-08-19T08:11:07;16.03;;;5.07;;
4278;SDS011;2153;47.744;10.580;2022-08-19T08:13:37;15.50;;;4.40;;
4278;SDS011;2153;47.744;10.580;2022-08-19T08:16:06;18.17;;;7.40;;
4278;SDS011;2153;47.744;10.580;2022-08-19T08:18:33;19.53;;;8.70;;
4278;SDS011;2153;47.744;10.580;2022-08-19T08:21:06;23.30;;;10.00;;
4278;SDS011;2153;47.744;10.580;2022-08-19T08:23:33;23.30;;;9.37;;
4278;SDS011;2153;47.744;10.580;2022-08-19T08:26:00;23.13;;;11.30;;
4278;SDS011;2153;47.744;10.580;2022-08-19T08:28:29;26.17;;;11.43;;
4278;SDS011;2153;47.744;10.580;2022-08-19T08:30:58;22.90;;;10.20;;
4278;SDS011;2153;47.744;10.580;2022-08-19T08:33:26;23.30;;;10.33;;
4278;SDS011;2153;47.744;10.580;2022-08-19T08:35:55;22.70;;;10.60;;
4278;SDS011;2153;47.744;10.580;2022-08-19T08:38:21;28.40;;;10.80;;
4278;SDS011;2153;47.744;10.580;2022-08-19T08:40:49;24.10;;;10.63;;
4278;SDS011;2153;47.744;10.580;2022-08-19T08:43:22;25.07;;;11.27;;
4278;SDS011;2153;47.744;10.580;2022-08-19T08:45:55;24.73;;;10.53;;
4278;SDS011;2153;47.744;10.580;2022-08-19T08:48:30;23.90;;;10.83;;
4278;SDS011;2153;47.744;10.580;2022-08-19T08:51:02;24.83;;;11.80;;
4278;SDS011;2153;47.744;10.580;2022-08-19T08:53:32;25.37;;;12.10;;
4278;SDS011;2153;47.744;10.580;2022-08-19T08:56:02;24.23;;;11.27;;
4278;SDS011;2153;47.744;10.580;2022-08-19T08:58:36;25.70;;;11.67;;
4278;SDS011;2153;47.744;10.580;2022-08-19T09:01:11;24.43;;;10.60;;
4278;SDS011;2153;47.744;10.580;2022-08-19T09:03:39;18.37;;;7.33;;
4278;SDS011;2153;47.744;10.580;2022-08-19T09:06:10;18.80;;;6.70;;
4278;SDS011;2153;47.744;10.580;2022-08-19T09:08:43;16.63;;;4.67;;
4278;SDS011;2153;47.744;10.580;2022-08-19T09:11:15;17.30;;;5.40;;
4278;SDS011;2153;47.744;10.580;2022-08-19T09:13:53;15.83;;;2.40;;
4278;SDS011;2153;47.744;10.580;2022-08-19T09:16:30;12.17;;;2.07;;
4278;SDS011;2153;47.744;10.580;2022-08-19T09:18:57;12.97;;;2.60;;
4278;SDS011;2153;47.744;10.580;2022-08-19T09:21:28;12.37;;;2.40;;
4278;SDS011;2153;47.744;10.580;2022-08-19T09:23:55;14.67;;;3.10;;
4278;SDS011;2153;47.744;10.580;2022-08-19T09:26:23;15.10;;;2.60;;
4278;SDS011;2153;47.744;10.580;2022-08-19T09:28:51;14.17;;;2.70;;
4278;SDS011;2153;47.744;10.580;2022-08-19T09:31:20;12.50;;;2.60;;
4278;SDS011;2153;47.744;10.580;2022-08-19T09:33:50;12.77;;;2.37;;
4278;SDS011;2153;47.744;10.580;2022-08-19T09:36:18;12.50;;;2.30;;
4278;SDS011;2153;47.744;10.580;2022-08-19T09:38:47;19.00;;;2.67;;
4278;SDS011;2153;47.744;10.580;2022-08-19T09:41:15;13.97;;;2.27;;
4278;SDS011;2153;47.744;10.580;2022-08-19T09:43:44;12.93;;;2.63;;
4278;SDS011;2153;47.744;10.580;2022-08-19T09:46:13;13.87;;;3.43;;
4278;SDS011;2153;47.744;10.580;2022-08-19T09:48:41;15.23;;;3.00;;
4278;SDS011;2153;47.744;10.580;2022-08-19T09:51:11;14.03;;;3.63;;
4278;SDS011;2153;47.744;10.580;2022-08-19T09:53:40;14.30;;;3.80;;
4278;SDS011;2153;47.744;10.580;2022-08-19T09:56:08;16.50;;;4.57;;
4278;SDS011;2153;47.744;10.580;2022-08-19T09:58:36;18.30;;;4.37;;
4278;SDS011;2153;47.744;10.580;2022-08-19T10:01:04;16.03;;;4.93;;
4278;SDS011;2153;47.744;10.580;2022-08-19T10:03:32;14.90;;;4.83;;
4278;SDS011;2153;47.744;10.580;2022-08-19T10:06:01;14.97;;;4.50;;
4278;SDS011;2153;47.744;10.580;2022-08-19T10:08:31;17.87;;;5.97;;
4278;SDS011;2153;47.744;10.580;2022-08-19T10:10:59;16.07;;;5.57;;
4278;SDS011;2153;47.744;10.580;2022-08-19T10:13:28;20.83;;;5.50;;
4278;SDS011;2153;47.744;10.580;2022-08-19T10:16:01;17.80;;;6.30;;
4278;SDS011;2153;47.744;10.580;2022-08-19T10:18:30;17.93;;;5.57;;
4278;SDS011;2153;47.744;10.580;2022-08-19T10:21:02;17.37;;;5.10;;
4278;SDS011;2153;47.744;10.580;2022-08-19T10:23:35;17.33;;;5.80;;
4278;SDS011;2153;47.744;10.580;2022-08-19T10:26:02;18.40;;;5.70;;
4278;SDS011;2153;47.744;10.580;2022-08-19T10:28:31;21.80;;;5.53;;
4278;SDS011;2153;47.744;10.580;2022-08-19T10:30:58;17.17;;;5.73;;
4278;SDS011;2153;47.744;10.580;2022-08-19T10:33:29;17.63;;;5.50;;
4278;SDS011;2153;47.744;10.580;2022-08-19T10:35:58;15.20;;;4.80;;
4278;SDS011;2153;47.744;10.580;2022-08-19T10:38:25;16.00;;;4.97;;
4278;SDS011;2153;47.744;10.580;2022-08-19T10:40:55;15.80;;;5.10;;
4278;SDS011;2153;47.744;10.580;2022-08-19T10:43:21;16.33;;;4.77;;
4278;SDS011;2153;47.744;10.580;2022-08-19T10:45:51;16.50;;;4.90;;
4278;SDS011;2153;47.744;10.580;2022-08-19T10:48:22;14.27;;;3.93;;
4278;SDS011;2153;47.744;10.580;2022-08-19T10:50:49;17.10;;;3.93;;
4278;SDS011;2153;47.744;10.580;2022-08-19T10:53:34;15.77;;;4.53;;
4278;SDS011;2153;47.744;10.580;2022-08-19T10:56:02;15.83;;;4.03;;
4278;SDS011;2153;47.744;10.580;2022-08-19T10:58:46;16.33;;;4.10;;
4278;SDS011;2153;47.744;10.580;2022-08-19T11:01:14;14.70;;;3.77;;
4278;SDS011;2153;47.744;10.580;2022-08-19T11:03:40;13.87;;;3.40;;
4278;SDS011;2153;47.744;10.580;2022-08-19T11:06:07;23.30;;;3.77;;
4278;SDS011;2153;47.744;10.580;2022-08-19T11:08:35;18.80;;;3.30;;
4278;SDS011;2153;47.744;10.580;2022-08-19T11:11:05;23.60;;;3.70;;
4278;SDS011;2153;47.744;10.580;2022-08-19T11:13:34;14.60;;;3.47;;
4278;SDS011;2153;47.744;10.580;2022-08-19T11:16:04;14.13;;;3.90;;
4278;SDS011;2153;47.744;10.580;2022-08-19T11:18:33;16.30;;;3.47;;
4278;SDS011;2153;47.744;10.580;2022-08-19T11:21:05;17.70;;;3.40;;
4278;SDS011;2153;47.744;10.580;2022-08-19T11:23:33;15.60;;;3.23;;
4278;SDS011;2153;47.744;10.580;2022-08-19T11:26:00;15.77;;;3.30;;
4278;SDS011;2153;47.744;10.580;2022-08-19T11:28:28;13.43;;;2.20;;
4278;SDS011;2153;47.744;10.580;2022-08-19T11:30:55;21.33;;;2.73;;
4278;SDS011;2153;47.744;10.580;2022-08-19T11:33:22;14.27;;;1.80;;
4278;SDS011;2153;47.744;10.580;2022-08-19T11:35:51;12.20;;;1.70;;
4278;SDS011;2153;47.744;10.580;2022-08-19T11:38:18;17.93;;;1.67;;
4278;SDS011;2153;47.744;10.580;2022-08-19T11:40:44;12.80;;;1.60;;
4278;SDS011;2153;47.744;10.580;2022-08-19T11:43:19;12.83;;;1.30;;
4278;SDS011;2153;47.744;10.580;2022-08-19T11:45:47;11.00;;;0.90;;
4278;SDS011;2153;47.744;10.580;2022-08-19T11:48:14;21.23;;;1.20;;
4278;SDS011;2153;47.744;10.580;2022-08-19T11:50:40;12.10;;;1.30;;
4278;SDS011;2153;47.744;10.580;2022-08-19T11:53:08;14.50;;;1.03;;
4278;SDS011;2153;47.744;10.580;2022-08-19T11:55:36;11.40;;;0.97;;
4278;SDS011;2153;47.744;10.580;2022-08-19T11:58:03;12.90;;;1.50;;
4278;SDS011;2153;47.744;10.580;2022-08-19T12:00:31;15.97;;;1.80;;
4278;SDS011;2153;47.744;10.580;2022-08-19T12:03:00;11.50;;;1.13;;
4278;SDS011;2153;47.744;10.580;2022-08-19T12:05:27;13.70;;;1.10;;
4278;SDS011;2153;47.744;10.580;2022-08-19T12:07:53;11.23;;;0.93;;
4278;SDS011;2153;47.744;10.580;2022-08-19T12:10:21;13.80;;;1.03;;
4278;SDS011;2153;47.744;10.580;2022-08-19T12:12:48;11.70;;;1.13;;
4278;SDS011;2153;47.744;10.580;2022-08-19T12:15:15;11.60;;;1.07;;
4278;SDS011;2153;47.744;10.580;2022-08-19T12:17:42;13.20;;;1.30;;
4278;SDS011;2153;47.744;10.580;2022-08-19T12:20:11;18.60;;;1.30;;
4278;SDS011;2153;47.744;10.580;2022-08-19T12:22:40;12.87;;;1.37;;
4278;SDS011;2153;47.744;10.580;2022-08-19T12:25:08;12.10;;;1.10;;
4278;SDS011;2153;47.744;10.580;2022-08-19T12:27:35;11.30;;;1.13;;
4278;SDS011;2153;47.744;10.580;2022-08-19T12:30:03;15.50;;;1.33;;
4278;SDS011;2153;47.744;10.580;2022-08-19T12:32:31;12.30;;;1.20;;
4278;SDS011;2153;47.744;10.580;2022-08-19T12:34:57;13.33;;;1.20;;
4278;SDS011;2153;47.744;10.580;2022-08-19T12:37:25;16.30;;;1.83;;
4278;SDS011;2153;47.744;10.580;2022-08-19T12:39:52;17.23;;;1.53;;
4278;SDS011;2153;47.744;10.580;2022-08-19T12:42:19;15.50;;;1.27;;
4278;SDS011;2153;47.744;10.580;2022-08-19T12:44:46;12.20;;;1.27;;
4278;SDS011;2153;47.744;10.580;2022-08-19T12:47:13;11.70;;;1.30;;
4278;SDS011;2153;47.744;10.580;2022-08-19T12:49:42;12.10;;;1.40;;
4278;SDS011;2153;47.744;10.580;2022-08-19T12:52:10;12.40;;;1.40;;
4278;SDS011;2153;47.744;10.580;2022-08-19T12:54:41;14.43;;;1.50;;
4278;SDS011;2153;47.744;10.580;2022-08-19T12:57:09;11.87;;;1.70;;
4278;SDS011;2153;47.744;10.580;2022-08-19T12:59:37;11.57;;;1.70;;
4278;SDS011;2153;47.744;10.580;2022-08-19T13:02:04;14.70;;;2.73;;
4278;SDS011;2153;47.744;10.580;2022-08-19T13:04:32;15.40;;;3.20;;
4278;SDS011;2153;47.744;10.580;2022-08-19T13:07:01;16.90;;;3.83;;
4278;SDS011;2153;47.744;10.580;2022-08-19T13:09:28;14.20;;;4.03;;
4278;SDS011;2153;47.744;10.580;2022-08-19T13:11:56;14.67;;;4.37;;
4278;SDS011;2153;47.744;10.580;2022-08-19T13:14:22;14.60;;;4.33;;
4278;SDS011;2153;47.744;10.580;2022-08-19T13:16:49;14.53;;;4.50;;
4278;SDS011;2153;47.744;10.580;2022-08-19T13:19:16;19.23;;;5.37;;
4278;SDS011;2153;47.744;10.580;2022-08-19T13:21:45;16.13;;;5.67;;
4278;SDS011;2153;47.744;10.580;2022-08-19T13:24:15;19.67;;;7.80;;
4278;SDS011;2153;47.744;10.580;2022-08-19T13:26:42;19.07;;;7.10;;
4278;SDS011;2153;47.744;10.580;2022-08-19T13:29:10;21.10;;;7.67;;
4278;SDS011;2153;47.744;10.580;2022-08-19T13:31:55;27.73;;;7.30;;
4278;SDS011;2153;47.744;10.580;2022-08-19T13:34:39;19.87;;;8.13;;
4278;SDS011;2153;47.744;10.580;2022-08-19T13:37:05;18.37;;;7.60;;
4278;SDS011;2153;47.744;10.580;2022-08-19T13:39:32;19.90;;;7.87;;
4278;SDS011;2153;47.744;10.580;2022-08-19T13:42:00;18.50;;;7.73;;
4278;SDS011;2153;47.744;10.580;2022-08-19T13:44:30;19.87;;;6.83;;
4278;SDS011;2153;47.744;10.580;2022-08-19T13:46:59;19.60;;;6.90;;
4278;SDS011;2153;47.744;10.580;2022-08-19T13:49:30;18.23;;;7.77;;
4278;SDS011;2153;47.744;10.580;2022-08-19T13:51:57;16.70;;;6.50;;
4278;SDS011;2153;47.744;10.580;2022-08-19T13:54:24;19.07;;;7.60;;
4278;SDS011;2153;47.744;10.580;2022-08-19T13:56:51;20.73;;;7.73;;
4278;SDS011;2153;47.744;10.580;2022-08-19T13:59:18;18.27;;;7.50;;
4278;SDS011;2153;47.744;10.580;2022-08-19T14:01:46;18.73;;;6.70;;
4278;SDS011;2153;47.744;10.580;2022-08-19T14:04:13;18.33;;;6.97;;
4278;SDS011;2153;47.744;10.580;2022-08-19T14:06:40;15.80;;;5.70;;
4278;SDS011;2153;47.744;10.580;2022-08-19T14:09:06;16.73;;;5.70;;
4278;SDS011;2153;47.744;10.580;2022-08-19T14:11:33;16.93;;;5.20;;
4278;SDS011;2153;47.744;10.580;2022-08-19T14:14:00;14.70;;;3.80;;
4278;SDS011;2153;47.744;10.580;2022-08-19T14:16:27;14.73;;;3.90;;
4278;SDS011;2153;47.744;10.580;2022-08-19T14:18:56;14.03;;;3.60;;
4278;SDS011;2153;47.744;10.580;2022-08-19T14:21:23;15.60;;;3.40;;
4278;SDS011;2153;47.744;10.580;2022-08-19T14:23:51;13.50;;;3.30;;
4278;SDS011;2153;47.744;10.580;2022-08-19T14:26:19;14.30;;;4.10;;
4278;SDS011;2153;47.744;10.580;2022-08-19T14:28:46;13.70;;;3.20;;
4278;SDS011;2153;47.744;10.580;2022-08-19T14:31:15;13.10;;;3.10;;
4278;SDS011;2153;47.744;10.580;2022-08-19T14:33:43;13.90;;;3.90;;
4278;SDS011;2153;47.744;10.580;2022-08-19T14:36:12;15.80;;;3.43;;
4278;SDS011;2153;47.744;10.580;2022-08-19T14:38:39;13.43;;;3.20;;
4278;SDS011;2153;47.744;10.580;2022-08-19T14:41:07;13.77;;;3.00;;
4278;SDS011;2153;47.744;10.580;2022-08-19T14:43:35;14.43;;;3.10;;
4278;SDS011;2153;47.744;10.580;2022-08-19T14:46:03;14.40;;;3.03;;
4278;SDS011;2153;47.744;10.580;2022-08-19T14:48:30;13.17;;;3.07;;
4278;SDS011;2153;47.744;10.580;2022-08-19T14:50:57;12.13;;;2.30;;
4278;SDS011;2153;47.744;10.580;2022-08-19T14:53:25;18.33;;;3.10;;
4278;SDS011;2153;47.744;10.580;2022-08-19T14:55:52;13.23;;;3.00;;